sensor_id;sensor_type;location;lat;lon;timestamp;pressure;altitude;pressure_sealevel;temperature;humidity
4836;BME280;66719;51.226;6.902;2023-07-31T00:01:12;100399.84;;;16.43;100.00
4836;BME280;66719;51.226;6.902;2023-07-31T00:03:39;100391.94;;;16.43;100.00
4836;BME280;66719;51.226;6.902;2023-07-31T00:06:05;100395.50;;;16.42;100.00
4836;BME280;66719;51.226;6.902;2023-07-31T00:08:32;100388.47;;;16.41;100.00
4836;BME280;66719;51.226;6.902;2023-07-31T00:10:58;100394.69;;;16.40;100.00
4836;BME280;66719;51.226;6.902;2023-07-31T00:13:25;100393.75;;;16.41;100.00
4836;BME280;66719;51.226;6.902;2023-07-31T00:15:51;100394.84;;;16.37;100.00
4836;BME280;66719;51.226;6.902;2023-07-31T00:18:18;100398.44;;;16.36;100.00
4836;BME280;66719;51.226;6.902;2023-07-31T00:20:44;100392.97;;;16.39;100.00
4836;BME280;66719;51.226;6.902;2023-07-31T00:23:11;100387.56;;;16.42;100.00
4836;BME280;66719;51.226;6.902;2023-07-31T00:25:37;100396.28;;;16.44;100.00
4836;BME280;66719;51.226;6.902;2023-07-31T00:28:04;100391.97;;;16.42;100.00
4836;BME280;66719;51.226;6.902;2023-07-31T00:30:31;100399.00;;;16.43;100.00
4836;BME280;66719;51.226;6.902;2023-07-31T00:32:58;100386.63;;;16.43;100.00
4836;BME280;66719;51.226;6.902;2023-07-31T00:35:24;100399.03;;;16.41;100.00
4836;BME280;66719;51.226;6.902;2023-07-31T00:37:51;100389.31;;;16.42;100.00
4836;BME280;66719;51.226;6.902;2023-07-31T00:40:17;100383.13;;;16.43;100.00
4836;BME280;66719;51.226;6.902;2023-07-31T00:42:44;100387.69;;;16.39;100.00
4836;BME280;66719;51.226;6.902;2023-07-31T00:45:11;100391.19;;;16.39;100.00
4836;BME280;66719;51.226;6.902;2023-07-31T00:47:37;100388.56;;;16.39;100.00
4836;BME280;66719;51.226;6.902;2023-07-31T00:50:04;100384.13;;;16.40;100.00
4836;BME280;66719;51.226;6.902;2023-07-31T00:52:32;100381.72;;;16.35;100.00
4836;BME280;66719;51.226;6.902;2023-07-31T00:54:59;100381.72;;;16.35;100.00
4836;BME280;66719;51.226;6.902;2023-07-31T00:57:25;100375.50;;;16.36;100.00
4836;BME280;66719;51.226;6.902;2023-07-31T00:59:52;100379.69;;;16.40;100.00
4836;BME280;66719;51.226;6.902;2023-07-31T01:02:18;100385.13;;;16.37;100.00
4836;BME280;66719;51.226;6.902;2023-07-31T01:04:45;100376.34;;;16.37;100.00
4836;BME280;66719;51.226;6.902;2023-07-31T01:07:24;100378.84;;;16.40;100.00
4836;BME280;66719;51.226;6.902;2023-07-31T01:10:04;100373.56;;;16.40;100.00
4836;BME280;66719;51.226;6.902;2023-07-31T01:12:34;100373.56;;;16.40;100.00
4836;BME280;66719;51.226;6.902;2023-07-31T01:17:27;100371.84;;;16.39;100.00
4836;BME280;66719;51.226;6.902;2023-07-31T01:19:55;100374.66;;;16.36;100.00
4836;BME280;66719;51.226;6.902;2023-07-31T01:28:08;100371.91;;;16.37;100.00
4836;BME280;66719;51.226;6.902;2023-07-31T01:30:43;100366.72;;;16.36;100.00
4836;BME280;66719;51.226;6.902;2023-07-31T01:33:11;100356.91;;;16.38;100.00
4836;BME280;66719;51.226;6.902;2023-07-31T01:35:37;100366.56;;;16.39;100.00
4836;BME280;66719;51.226;6.902;2023-07-31T01:38:05;100379.78;;;16.39;100.00
4836;BME280;66719;51.226;6.902;2023-07-31T01:40:32;100372.09;;;16.34;100.00
4836;BME280;66719;51.226;6.902;2023-07-31T01:42:58;100379.16;;;16.34;100.00
4836;BME280;66719;51.226;6.902;2023-07-31T01:45:25;100366.72;;;16.36;100.00
4836;BME280;66719;51.226;6.902;2023-07-31T01:47:52;100372.09;;;16.34;100.00
4836;BME280;66719;51.226;6.902;2023-07-31T01:50:18;100369.44;;;16.34;100.00
4836;BME280;66719;51.226;6.902;2023-07-31T01:52:45;100366.72;;;16.36;100.00
4836;BME280;66719;51.226;6.902;2023-07-31T01:55:11;100357.06;;;16.35;100.00
4836;BME280;66719;51.226;6.902;2023-07-31T01:57:38;100365.88;;;16.35;100.00
4836;BME280;66719;51.226;6.902;2023-07-31T02:00:05;100365.88;;;16.35;100.00
4836;BME280;66719;51.226;6.902;2023-07-31T02:02:33;100360.50;;;16.37;100.00
4836;BME280;66719;51.226;6.902;2023-07-31T02:04:59;100363.28;;;16.34;100.00
4836;BME280;66719;51.226;6.902;2023-07-31T02:07:26;100362.38;;;16.35;100.00
4836;BME280;66719;51.226;6.902;2023-07-31T02:09:52;100357.00;;;16.36;100.00
4836;BME280;66719;51.226;6.902;2023-07-31T02:12:20;100361.56;;;16.33;100.00
4836;BME280;66719;51.226;6.902;2023-07-31T02:14:46;100348.34;;;16.33;100.00
4836;BME280;66719;51.226;6.902;2023-07-31T02:17:13;100351.88;;;16.33;100.00
4836;BME280;66719;51.226;6.902;2023-07-31T02:19:39;100352.66;;;16.35;100.00
4836;BME280;66719;51.226;6.902;2023-07-31T02:22:06;100348.34;;;16.33;100.00
4836;BME280;66719;51.226;6.902;2023-07-31T02:24:32;100348.34;;;16.33;100.00
4836;BME280;66719;51.226;6.902;2023-07-31T02:26:59;100344.81;;;16.34;100.00
4836;BME280;66719;51.226;6.902;2023-07-31T02:29:25;100336.88;;;16.34;100.00
4836;BME280;66719;51.226;6.902;2023-07-31T02:31:52;100340.41;;;16.33;100.00
4836;BME280;66719;51.226;6.902;2023-07-31T02:34:18;100344.81;;;16.34;100.00
4836;BME280;66719;51.226;6.902;2023-07-31T02:36:45;100335.13;;;16.33;100.00
4836;BME280;66719;51.226;6.902;2023-07-31T02:39:11;100325.44;;;16.33;100.00
4836;BME280;66719;51.226;6.902;2023-07-31T02:41:38;100325.44;;;16.33;100.00
4836;BME280;66719;51.226;6.902;2023-07-31T02:44:04;100327.94;;;16.36;100.00
4836;BME280;66719;51.226;6.902;2023-07-31T02:46:31;100324.44;;;16.36;100.00
4836;BME280;66719;51.226;6.902;2023-07-31T02:48:57;100322.66;;;16.36;100.00
4836;BME280;66719;51.226;6.902;2023-07-31T02:51:24;100319.00;;;16.39;100.00
4836;BME280;66719;51.226;6.902;2023-07-31T02:53:50;100319.22;;;16.34;100.00
4836;BME280;66719;51.226;6.902;2023-07-31T02:56:17;100316.59;;;16.34;100.00
4836;BME280;66719;51.226;6.902;2023-07-31T02:58:44;100322.56;;;16.38;100.00
4836;BME280;66719;51.226;6.902;2023-07-31T03:01:10;100314.56;;;16.39;100.00
4836;BME280;66719;51.226;6.902;2023-07-31T03:03:37;100310.13;;;16.40;100.00
4836;BME280;66719;51.226;6.902;2023-07-31T03:06:04;100312.69;;;16.42;100.00
4836;BME280;66719;51.226;6.902;2023-07-31T03:08:30;100313.56;;;16.42;100.00
4836;BME280;66719;51.226;6.902;2023-07-31T03:10:57;100312.56;;;16.45;100.00
4836;BME280;66719;51.226;6.902;2023-07-31T03:13:23;100308.97;;;16.46;100.00
4836;BME280;66719;51.226;6.902;2023-07-31T03:15:50;100310.59;;;16.48;100.00
4836;BME280;66719;51.226;6.902;2023-07-31T03:18:17;100305.31;;;16.48;100.00
4836;BME280;66719;51.226;6.902;2023-07-31T03:20:43;100304.38;;;16.49;100.00
4836;BME280;66719;51.226;6.902;2023-07-31T03:23:10;100305.41;;;16.47;100.00
4836;BME280;66719;51.226;6.902;2023-07-31T03:25:37;100307.03;;;16.49;100.00
4836;BME280;66719;51.226;6.902;2023-07-31T03:28:03;100312.31;;;16.49;100.00
4836;BME280;66719;51.226;6.902;2023-07-31T03:30:30;100310.53;;;16.50;100.00
4836;BME280;66719;51.226;6.902;2023-07-31T03:32:57;100311.38;;;16.50;100.00
4836;BME280;66719;51.226;6.902;2023-07-31T03:35:23;100309.63;;;16.51;100.00
4836;BME280;66719;51.226;6.902;2023-07-31T03:37:50;100310.38;;;16.53;100.00
4836;BME280;66719;51.226;6.902;2023-07-31T03:40:16;100302.28;;;16.56;100.00
4836;BME280;66719;51.226;6.902;2023-07-31T03:42:43;100302.47;;;16.53;100.00
4836;BME280;66719;51.226;6.902;2023-07-31T03:45:09;100305.03;;;16.54;100.00
4836;BME280;66719;51.226;6.902;2023-07-31T03:47:36;100302.38;;;16.54;100.00
4836;BME280;66719;51.226;6.902;2023-07-31T03:50:03;100304.16;;;16.54;100.00
4836;BME280;66719;51.226;6.902;2023-07-31T03:52:29;100297.94;;;16.55;100.00
4836;BME280;66719;51.226;6.902;2023-07-31T03:54:56;100292.75;;;16.53;100.00
4836;BME280;66719;51.226;6.902;2023-07-31T03:57:23;100291.97;;;16.51;100.00
4836;BME280;66719;51.226;6.902;2023-07-31T03:59:49;100299.91;;;16.51;100.00
4836;BME280;66719;51.226;6.902;2023-07-31T04:02:16;100285.75;;;16.52;100.00
4836;BME280;66719;51.226;6.902;2023-07-31T04:04:45;100284.81;;;16.53;100.00
4836;BME280;66719;51.226;6.902;2023-07-31T04:07:11;100282.16;;;16.53;100.00
4836;BME280;66719;51.226;6.902;2023-07-31T04:09:38;100282.09;;;16.55;100.00
4836;BME280;66719;51.226;6.902;2023-07-31T04:12:04;100281.22;;;16.54;100.00
4836;BME280;66719;51.226;6.902;2023-07-31T04:14:31;100280.22;;;16.57;100.00
4836;BME280;66719;51.226;6.902;2023-07-31T04:16:57;100278.50;;;16.56;100.00
4836;BME280;66719;51.226;6.902;2023-07-31T04:19:24;100280.28;;;16.55;100.00
4836;BME280;66719;51.226;6.902;2023-07-31T04:21:51;100279.44;;;16.55;100.00
4836;BME280;66719;51.226;6.902;2023-07-31T04:24:17;100281.22;;;16.54;100.00
4836;BME280;66719;51.226;6.902;2023-07-31T04:26:52;100262.72;;;16.54;100.00
4836;BME280;66719;51.226;6.902;2023-07-31T04:29:19;100270.66;;;16.54;100.00
4836;BME280;66719;51.226;6.902;2023-07-31T04:31:46;100268.19;;;16.51;100.00
4836;BME280;66719;51.226;6.902;2023-07-31T04:34:12;100260.25;;;16.51;100.00
4836;BME280;66719;51.226;6.902;2023-07-31T04:36:39;100252.44;;;16.48;100.00
4836;BME280;66719;51.226;6.902;2023-07-31T04:39:06;100252.38;;;16.50;100.00
4836;BME280;66719;51.226;6.902;2023-07-31T04:41:32;100254.09;;;16.51;100.00
4836;BME280;66719;51.226;6.902;2023-07-31T04:43:59;100255.81;;;16.52;100.00
4836;BME280;66719;51.226;6.902;2023-07-31T04:46:25;100247.94;;;16.50;100.00
4836;BME280;66719;51.226;6.902;2023-07-31T04:48:52;100248.81;;;16.51;100.00
4836;BME280;66719;51.226;6.902;2023-07-31T04:51:18;100242.66;;;16.50;100.00
4836;BME280;66719;51.226;6.902;2023-07-31T04:53:45;100244.22;;;16.54;100.00
4836;BME280;66719;51.226;6.902;2023-07-31T04:56:12;100240.66;;;16.55;100.00
4836;BME280;66719;51.226;6.902;2023-07-31T04:58:38;100239.63;;;16.58;100.00
4836;BME280;66719;51.226;6.902;2023-07-31T05:01:05;100236.94;;;16.59;100.00
4836;BME280;66719;51.226;6.902;2023-07-31T05:03:31;100222.69;;;16.62;100.00
4836;BME280;66719;51.226;6.902;2023-07-31T05:05:58;100216.38;;;16.64;100.00
4836;BME280;66719;51.226;6.902;2023-07-31T05:08:25;100219.78;;;16.66;100.00
4836;BME280;66719;51.226;6.902;2023-07-31T05:10:51;100210.91;;;16.69;100.00
4836;BME280;66719;51.226;6.902;2023-07-31T05:13:18;100216.88;;;16.73;100.00
4836;BME280;66719;51.226;6.902;2023-07-31T05:15:45;100213.53;;;16.69;100.00
4836;BME280;66719;51.226;6.902;2023-07-31T05:18:11;100205.53;;;16.71;100.00
4836;BME280;66719;51.226;6.902;2023-07-31T05:20:38;100208.00;;;16.74;100.00
4836;BME280;66719;51.226;6.902;2023-07-31T05:23:04;100202.63;;;16.75;100.00
4836;BME280;66719;51.226;6.902;2023-07-31T05:25:31;100195.47;;;16.77;100.00
4836;BME280;66719;51.226;6.902;2023-07-31T05:27:58;100192.00;;;16.77;100.00
4836;BME280;66719;51.226;6.902;2023-07-31T05:30:24;100198.97;;;16.78;100.00
4836;BME280;66719;51.226;6.902;2023-07-31T05:32:52;100192.00;;;16.77;100.00
4836;BME280;66719;51.226;6.902;2023-07-31T05:35:18;100186.63;;;16.78;100.00
4836;BME280;66719;51.226;6.902;2023-07-31T05:37:45;100183.97;;;16.78;100.00
4836;BME280;66719;51.226;6.902;2023-07-31T05:40:11;100184.81;;;16.79;100.00
4836;BME280;66719;51.226;6.902;2023-07-31T05:42:38;100172.44;;;16.79;100.00
4836;BME280;66719;51.226;6.902;2023-07-31T05:45:06;100167.16;;;16.79;100.00
4836;BME280;66719;51.226;6.902;2023-07-31T05:47:33;100166.13;;;16.82;100.00
4836;BME280;66719;51.226;6.902;2023-07-31T05:50:00;100168.78;;;16.82;100.00
4836;BME280;66719;51.226;6.902;2023-07-31T05:52:26;100171.34;;;16.83;100.00
4836;BME280;66719;51.226;6.902;2023-07-31T05:54:55;100165.19;;;16.83;100.00
4836;BME280;66719;51.226;6.902;2023-07-31T05:57:21;100178.50;;;16.81;100.00
4836;BME280;66719;51.226;6.902;2023-07-31T05:59:48;100168.78;;;16.82;100.00
4836;BME280;66719;51.226;6.902;2023-07-31T06:02:15;100168.00;;;16.80;100.00
4836;BME280;66719;51.226;6.902;2023-07-31T06:04:41;100161.78;;;16.81;100.00
4836;BME280;66719;51.226;6.902;2023-07-31T06:07:08;100166.91;;;16.84;100.00
4836;BME280;66719;51.226;6.902;2023-07-31T06:09:34;100165.06;;;16.86;100.00
4836;BME280;66719;51.226;6.902;2023-07-31T06:12:01;100166.91;;;16.84;100.00
4836;BME280;66719;51.226;6.902;2023-07-31T06:14:27;100176.63;;;16.83;100.00
4836;BME280;66719;51.226;6.902;2023-07-31T06:16:54;100187.13;;;16.85;100.00
4836;BME280;66719;51.226;6.902;2023-07-31T06:19:20;100182.75;;;16.84;100.00
4836;BME280;66719;51.226;6.902;2023-07-31T06:21:47;100176.88;;;16.79;100.00
4836;BME280;66719;51.226;6.902;2023-07-31T06:24:13;100170.56;;;16.81;100.00
4836;BME280;66719;51.226;6.902;2023-07-31T06:26:45;100167.31;;;16.76;100.00
4836;BME280;66719;51.226;6.902;2023-07-31T06:29:11;100162.94;;;16.75;100.00
4836;BME280;66719;51.226;6.902;2023-07-31T06:31:38;100170.13;;;16.73;100.00
4836;BME280;66719;51.226;6.902;2023-07-31T06:34:05;100171.81;;;16.74;100.00
4836;BME280;66719;51.226;6.902;2023-07-31T06:36:31;100163.03;;;16.74;100.00
4836;BME280;66719;51.226;6.902;2023-07-31T06:38:58;100157.00;;;16.72;100.00
4836;BME280;66719;51.226;6.902;2023-07-31T06:41:24;100173.63;;;16.74;100.00
4836;BME280;66719;51.226;6.902;2023-07-31T06:43:51;100174.56;;;16.73;100.00
4836;BME280;66719;51.226;6.902;2023-07-31T06:46:17;100178.06;;;16.73;100.00
4836;BME280;66719;51.226;6.902;2023-07-31T06:48:44;100172.69;;;16.75;100.00
4836;BME280;66719;51.226;6.902;2023-07-31T06:51:10;100161.16;;;16.76;100.00
4836;BME280;66719;51.226;6.902;2023-07-31T06:53:37;100159.22;;;16.79;100.00
4836;BME280;66719;51.226;6.902;2023-07-31T06:56:04;100157.66;;;16.75;100.00
4836;BME280;66719;51.226;6.902;2023-07-31T06:58:30;100164.75;;;16.75;100.00
4836;BME280;66719;51.226;6.902;2023-07-31T07:00:57;100153.22;;;16.76;100.00
4836;BME280;66719;51.226;6.902;2023-07-31T07:03:23;100164.75;;;16.75;100.00
4836;BME280;66719;51.226;6.902;2023-07-31T07:05:50;100159.53;;;16.73;100.00
4836;BME280;66719;51.226;6.902;2023-07-31T07:08:16;100156.91;;;16.73;100.00
4836;BME280;66719;51.226;6.902;2023-07-31T07:10:44;100163.31;;;16.67;100.00
4836;BME280;66719;51.226;6.902;2023-07-31T07:13:10;100159.72;;;16.70;100.00
4836;BME280;66719;51.226;6.902;2023-07-31T07:15:39;100161.44;;;16.71;100.00
4836;BME280;66719;51.226;6.902;2023-07-31T07:18:05;100156.22;;;16.70;100.00
4836;BME280;66719;51.226;6.902;2023-07-31T07:20:32;100151.78;;;16.70;100.00
4836;BME280;66719;51.226;6.902;2023-07-31T07:22:58;100146.59;;;16.69;100.00
4836;BME280;66719;51.226;6.902;2023-07-31T07:25:25;100150.84;;;16.71;100.00
4836;BME280;66719;51.226;6.902;2023-07-31T07:27:52;100147.47;;;16.67;100.00
4836;BME280;66719;51.226;6.902;2023-07-31T07:30:18;100143.28;;;16.63;100.00
4836;BME280;66719;51.226;6.902;2023-07-31T07:32:46;100159.16;;;16.63;100.00
4836;BME280;66719;51.226;6.902;2023-07-31T07:35:12;100154.63;;;16.65;100.00
4836;BME280;66719;51.226;6.902;2023-07-31T07:37:39;100148.41;;;16.66;100.00
4836;BME280;66719;51.226;6.902;2023-07-31T07:40:06;100143.13;;;16.66;100.00
4836;BME280;66719;51.226;6.902;2023-07-31T07:42:33;100149.22;;;16.69;100.00
4836;BME280;66719;51.226;6.902;2023-07-31T07:44:59;100147.47;;;16.67;100.00
4836;BME280;66719;51.226;6.902;2023-07-31T07:47:26;100140.56;;;16.65;100.00
4836;BME280;66719;51.226;6.902;2023-07-31T07:49:54;100160.09;;;16.62;100.00
4836;BME280;66719;51.226;6.902;2023-07-31T07:52:21;100147.72;;;16.63;100.00
4836;BME280;66719;51.226;6.902;2023-07-31T07:54:47;100144.13;;;16.64;100.00
4836;BME280;66719;51.226;6.902;2023-07-31T07:57:14;100134.41;;;16.64;100.00
4836;BME280;66719;51.226;6.902;2023-07-31T07:59:41;100143.00;;;16.70;100.00
4836;BME280;66719;51.226;6.902;2023-07-31T08:02:07;100152.16;;;16.62;100.00
4836;BME280;66719;51.226;6.902;2023-07-31T08:04:34;100142.44;;;16.63;100.00
4836;BME280;66719;51.226;6.902;2023-07-31T08:07:01;100144.06;;;16.65;100.00
4836;BME280;66719;51.226;6.902;2023-07-31T08:09:27;100143.00;;;16.70;100.00
4836;BME280;66719;51.226;6.902;2023-07-31T08:11:54;100137.53;;;16.73;100.00
4836;BME280;66719;51.226;6.902;2023-07-31T08:14:20;100129.59;;;16.73;100.00
4836;BME280;66719;51.226;6.902;2023-07-31T08:16:47;100130.63;;;16.70;100.00
4836;BME280;66719;51.226;6.902;2023-07-31T08:19:14;100134.72;;;16.76;100.00
4836;BME280;66719;51.226;6.902;2023-07-31T08:21:41;100121.84;;;16.70;100.00
4836;BME280;66719;51.226;6.902;2023-07-31T08:24:07;100129.97;;;16.65;100.00
4836;BME280;66719;51.226;6.902;2023-07-31T08:26:34;100112.25;;;16.67;100.00
4836;BME280;66719;51.226;6.902;2023-07-31T08:29:01;100119.25;;;16.68;100.00
4836;BME280;66719;51.226;6.902;2023-07-31T08:31:27;100118.34;;;16.69;100.00
4836;BME280;66719;51.226;6.902;2023-07-31T08:33:56;100118.28;;;16.71;100.00
4836;BME280;66719;51.226;6.902;2023-07-31T08:36:22;100111.09;;;16.73;100.00
4836;BME280;66719;51.226;6.902;2023-07-31T08:38:49;100112.81;;;16.74;100.00
4836;BME280;66719;51.226;6.902;2023-07-31T08:41:16;100110.16;;;16.74;100.00
4836;BME280;66719;51.226;6.902;2023-07-31T08:43:46;100108.47;;;16.73;100.00
4836;BME280;66719;51.226;6.902;2023-07-31T08:46:13;100110.16;;;16.74;100.00
4836;BME280;66719;51.226;6.902;2023-07-31T08:48:42;100113.97;;;16.68;100.00
4836;BME280;66719;51.226;6.902;2023-07-31T08:51:09;100109.09;;;16.60;100.00
4836;BME280;66719;51.226;6.902;2023-07-31T08:53:36;100107.97;;;16.64;100.00
4836;BME280;66719;51.226;6.902;2023-07-31T08:56:03;100099.19;;;16.64;100.00
4836;BME280;66719;51.226;6.902;2023-07-31T08:58:31;100115.91;;;16.64;100.00
4836;BME280;66719;51.226;6.902;2023-07-31T09:01:03;100114.88;;;16.69;100.00
4836;BME280;66719;51.226;6.902;2023-07-31T09:03:33;100111.56;;;16.63;100.00
4836;BME280;66719;51.226;6.902;2023-07-31T09:06:01;100109.25;;;16.57;100.00
4836;BME280;66719;51.226;6.902;2023-07-31T09:08:30;100118.88;;;16.58;100.00
4836;BME280;66719;51.226;6.902;2023-07-31T09:11:02;100126.88;;;16.57;100.00
4836;BME280;66719;51.226;6.902;2023-07-31T09:13:30;100122.44;;;16.57;100.00
4836;BME280;66719;51.226;6.902;2023-07-31T09:19:44;100117.88;;;16.61;100.00
4836;BME280;66719;51.226;6.902;2023-07-31T09:22:11;100114.03;;;16.66;100.00
4836;BME280;66719;51.226;6.902;2023-07-31T09:24:37;100096.34;;;16.69;100.00
4836;BME280;66719;51.226;6.902;2023-07-31T09:27:05;100104.78;;;16.75;100.00
4836;BME280;66719;51.226;6.902;2023-07-31T09:29:32;100106.50;;;16.76;100.00
4836;BME280;66719;51.226;6.902;2023-07-31T09:31:58;100101.16;;;16.78;100.00
4836;BME280;66719;51.226;6.902;2023-07-31T09:34:31;100104.47;;;16.81;100.00
4836;BME280;66719;51.226;6.902;2023-07-31T09:37:02;100104.56;;;16.80;100.00
4836;BME280;66719;51.226;6.902;2023-07-31T09:39:29;100092.19;;;16.80;100.00
4836;BME280;66719;51.226;6.902;2023-07-31T09:41:56;100095.84;;;16.78;100.00
4836;BME280;66719;51.226;6.902;2023-07-31T09:44:40;100090.63;;;16.76;100.00
4836;BME280;66719;51.226;6.902;2023-07-31T09:47:20;100083.72;;;16.74;100.00
4836;BME280;66719;51.226;6.902;2023-07-31T09:49:48;100098.50;;;16.78;100.00
4836;BME280;66719;51.226;6.902;2023-07-31T09:52:14;100095.16;;;16.74;100.00
4836;BME280;66719;51.226;6.902;2023-07-31T09:54:41;100089.63;;;16.79;100.00
4836;BME280;66719;51.226;6.902;2023-07-31T09:57:08;100082.63;;;16.78;100.00
4836;BME280;66719;51.226;6.902;2023-07-31T09:59:35;100090.56;;;16.78;100.00
4836;BME280;66719;51.226;6.902;2023-07-31T10:02:02;100080.94;;;16.77;100.00
4836;BME280;66719;51.226;6.902;2023-07-31T10:04:30;100074.69;;;16.78;100.00
4836;BME280;66719;51.226;6.902;2023-07-31T10:06:58;100081.69;;;16.79;100.00
4836;BME280;66719;51.226;6.902;2023-07-31T10:09:31;100086.22;;;16.77;100.00
4836;BME280;66719;51.226;6.902;2023-07-31T10:12:05;100080.75;;;16.80;100.00
4836;BME280;66719;51.226;6.902;2023-07-31T10:14:36;100078.88;;;16.82;100.00
4836;BME280;66719;51.226;6.902;2023-07-31T10:17:04;100079.63;;;16.84;100.00
4836;BME280;66719;51.226;6.902;2023-07-31T10:19:32;100076.03;;;16.85;100.00
4836;BME280;66719;51.226;6.902;2023-07-31T10:21:59;100077.78;;;16.86;100.00
4836;BME280;66719;51.226;6.902;2023-07-31T10:24:26;100081.94;;;16.90;100.00
4836;BME280;66719;51.226;6.902;2023-07-31T10:26:57;100083.66;;;16.91;100.00
4836;BME280;66719;51.226;6.902;2023-07-31T10:29:25;100077.50;;;16.90;100.00
4836;BME280;66719;51.226;6.902;2023-07-31T10:31:52;100072.13;;;16.92;100.00
4836;BME280;66719;51.226;6.902;2023-07-31T10:34:20;100071.03;;;16.96;100.00
4836;BME280;66719;51.226;6.902;2023-07-31T10:36:46;100065.56;;;16.99;100.00
4836;BME280;66719;51.226;6.902;2023-07-31T10:39:35;100068.97;;;17.01;100.00
4836;BME280;66719;51.226;6.902;2023-07-31T10:42:11;100065.56;;;16.99;100.00
4836;BME280;66719;51.226;6.902;2023-07-31T10:44:38;100068.63;;;17.07;100.00
4836;BME280;66719;51.226;6.902;2023-07-31T10:47:06;100062.59;;;17.21;100.00
4836;BME280;66719;51.226;6.902;2023-07-31T10:49:34;100058.06;;;17.23;100.00
4836;BME280;66719;51.226;6.902;2023-07-31T10:52:03;100056.91;;;17.27;100.00
4836;BME280;66719;51.226;6.902;2023-07-31T10:54:30;100054.97;;;17.31;100.00
4836;BME280;66719;51.226;6.902;2023-07-31T10:56:56;100053.06;;;17.33;100.00
4836;BME280;66719;51.226;6.902;2023-07-31T10:59:26;100057.34;;;17.35;100.00
4836;BME280;66719;51.226;6.902;2023-07-31T11:01:56;100054.53;;;17.38;100.00
4836;BME280;66719;51.226;6.902;2023-07-31T11:04:27;100053.84;;;17.35;100.00
4836;BME280;66719;51.226;6.902;2023-07-31T11:06:58;100059.31;;;17.32;100.00
4836;BME280;66719;51.226;6.902;2023-07-31T11:09:30;100057.88;;;17.26;100.00
4836;BME280;66719;51.226;6.902;2023-07-31T11:11:59;100057.97;;;17.24;100.00
4836;BME280;66719;51.226;6.902;2023-07-31T11:14:26;100048.31;;;17.23;100.00
4836;BME280;66719;51.226;6.902;2023-07-31T11:16:52;100052.75;;;17.23;100.00
4836;BME280;66719;51.226;6.902;2023-07-31T11:19:23;100045.38;;;17.28;100.00
4836;BME280;66719;51.226;6.902;2023-07-31T11:21:53;100051.47;;;17.30;100.00
4836;BME280;66719;51.226;6.902;2023-07-31T11:24:20;100055.13;;;17.28;100.00
4836;BME280;66719;51.226;6.902;2023-07-31T11:26:53;100065.56;;;17.31;100.00
4836;BME280;66719;51.226;6.902;2023-07-31T11:29:20;100059.31;;;17.32;100.00
4836;BME280;66719;51.226;6.902;2023-07-31T11:31:47;100058.78;;;17.41;100.00
4836;BME280;66719;51.226;6.902;2023-07-31T11:34:15;100055.00;;;17.45;100.00
4836;BME280;66719;51.226;6.902;2023-07-31T11:36:55;100061.44;;;17.41;100.00
4836;BME280;66719;51.226;6.902;2023-07-31T11:39:22;100053.22;;;17.45;100.00
4836;BME280;66719;51.226;6.902;2023-07-31T11:41:48;100041.53;;;17.49;100.00
4836;BME280;66719;51.226;6.902;2023-07-31T11:44:15;100052.78;;;17.53;100.00
4836;BME280;66719;51.226;6.902;2023-07-31T11:46:52;100045.78;;;17.52;100.00
4836;BME280;66719;51.226;6.902;2023-07-31T11:49:18;100052.53;;;17.58;100.00
4836;BME280;66719;51.226;6.902;2023-07-31T11:51:45;100049.13;;;17.56;100.00
4836;BME280;66719;51.226;6.902;2023-07-31T11:54:12;100043.63;;;17.59;100.00
4836;BME280;66719;51.226;6.902;2023-07-31T11:56:40;100047.13;;;17.59;100.00
4836;BME280;66719;51.226;6.902;2023-07-31T11:59:07;100049.59;;;17.62;100.00
4836;BME280;66719;51.226;6.902;2023-07-31T12:01:35;100040.69;;;17.63;100.00
4836;BME280;66719;51.226;6.902;2023-07-31T12:04:01;100035.34;;;17.65;100.00
4836;BME280;66719;51.226;6.902;2023-07-31T12:06:35;100038.84;;;17.65;100.00
4836;BME280;66719;51.226;6.902;2023-07-31T12:09:03;100035.50;;;17.62;100.00
4836;BME280;66719;51.226;6.902;2023-07-31T12:11:30;100033.97;;;17.58;100.00
4836;BME280;66719;51.226;6.902;2023-07-31T12:13:57;100044.47;;;17.59;100.00
4836;BME280;66719;51.226;6.902;2023-07-31T12:16:26;100036.53;;;17.59;100.00
4836;BME280;66719;51.226;6.902;2023-07-31T12:18:53;100032.00;;;17.61;100.00
4836;BME280;66719;51.226;6.902;2023-07-31T12:21:20;100036.44;;;17.61;100.00
4836;BME280;66719;51.226;6.902;2023-07-31T12:23:47;100045.13;;;17.63;100.00
4836;BME280;66719;51.226;6.902;2023-07-31T12:26:17;100043.44;;;17.62;100.00
4836;BME280;66719;51.226;6.902;2023-07-31T12:28:48;100037.13;;;17.64;100.00
4836;BME280;66719;51.226;6.902;2023-07-31T12:31:21;100034.47;;;17.64;100.00
4836;BME280;66719;51.226;6.902;2023-07-31T12:33:50;100037.88;;;17.66;100.00
4836;BME280;66719;51.226;6.902;2023-07-31T12:36:24;100032.41;;;17.69;100.00
4836;BME280;66719;51.226;6.902;2023-07-31T12:38:51;100041.91;;;17.73;100.00
4836;BME280;66719;51.226;6.902;2023-07-31T12:41:18;100032.06;;;17.75;100.00
4836;BME280;66719;51.226;6.902;2023-07-31T12:43:45;100032.06;;;17.75;100.00
4836;BME280;66719;51.226;6.902;2023-07-31T12:46:12;100039.06;;;17.76;100.00
4836;BME280;66719;51.226;6.902;2023-07-31T12:48:39;100044.38;;;17.76;100.00
4836;BME280;66719;51.226;6.902;2023-07-31T12:51:06;100037.09;;;17.80;100.00
4836;BME280;66719;51.226;6.902;2023-07-31T12:53:34;100022.53;;;17.87;100.00
4836;BME280;66719;51.226;6.902;2023-07-31T12:56:01;100018.56;;;17.94;100.00
4836;BME280;66719;51.226;6.902;2023-07-31T12:58:28;100028.41;;;17.92;100.00
4836;BME280;66719;51.226;6.902;2023-07-31T13:00:54;100024.91;;;17.92;100.00
4836;BME280;66719;51.226;6.902;2023-07-31T13:03:21;100017.53;;;17.97;100.00